createdAt,value
2023-02-28T06:59:00.390Z,100377.10
2023-02-28T07:01:05.919Z,100375.40
2023-02-28T07:03:10.761Z,100374.15
2023-02-28T07:05:15.899Z,100374.37
2023-02-28T07:07:20.932Z,100374.61
2023-02-28T07:09:28.890Z,100375.52
2023-02-28T07:11:33.826Z,100375.25
2023-02-28T07:13:38.525Z,100374.83
2023-02-28T07:15:44.340Z,100374.14
2023-02-28T07:17:49.250Z,100373.02
2023-02-28T07:19:53.977Z,100377.17
2023-02-28T07:21:58.713Z,100375.24
2023-02-28T07:24:03.645Z,100376.13
2023-02-28T07:26:11.957Z,100375.50
2023-02-28T07:28:16.835Z,100376.40
2023-02-28T07:30:22.228Z,100378.52
2023-02-28T07:32:27.415Z,100378.96
2023-02-28T07:34:32.336Z,100379.99
2023-02-28T07:36:37.248Z,100382.45
2023-02-28T07:38:42.248Z,100384.03
2023-02-28T07:40:47.052Z,100383.52
2023-02-28T07:42:51.965Z,100388.91
2023-02-28T07:44:56.646Z,100388.83
2023-02-28T07:47:01.793Z,100390.20
2023-02-28T07:49:06.950Z,100396.52
2023-02-28T07:51:12.003Z,100394.58
2023-02-28T07:53:16.802Z,100396.42
2023-02-28T07:55:21.543Z,100396.98
2023-02-28T07:57:26.610Z,100396.64
2023-02-28T07:59:32.365Z,100396.91
2023-02-28T08:01:37.331Z,100400.04
2023-02-28T08:03:42.543Z,100401.11
2023-02-28T08:05:47.558Z,100403.64
2023-02-28T08:07:52.801Z,100404.94
2023-02-28T08:09:57.569Z,100405.06
2023-02-28T08:12:08.843Z,100406.23
2023-02-28T08:14:13.593Z,100402.65
2023-02-28T08:16:21.455Z,100402.59
2023-02-28T08:18:26.712Z,100402.63
2023-02-28T08:20:31.630Z,100401.42
2023-02-28T08:22:36.332Z,100403.86
2023-02-28T08:24:43.973Z,100400.48
2023-02-28T08:26:48.762Z,100396.71
2023-02-28T08:28:55.184Z,100401.63
2023-02-28T08:31:01.345Z,100401.40
2023-02-28T08:33:06.114Z,100403.06
2023-02-28T08:35:12.157Z,100402.17
2023-02-28T08:37:16.917Z,100406.09
2023-02-28T08:39:21.702Z,100405.86
2023-02-28T08:41:27.304Z,100405.73
2023-02-28T08:43:32.288Z,100403.33
2023-02-28T08:45:37.054Z,100410.30
2023-02-28T08:47:42.137Z,100407.61
2023-02-28T08:49:46.764Z,100405.69
2023-02-28T08:51:51.650Z,100407.21
2023-02-28T08:53:58.343Z,100406.61
2023-02-28T08:56:06.245Z,100406.75
2023-02-28T08:58:10.925Z,100409.79
2023-02-28T09:00:17.483Z,100410.62
2023-02-28T09:02:22.221Z,100414.02
2023-02-28T09:04:27.001Z,100412.23
2023-02-28T09:06:33.027Z,100408.80
2023-02-28T09:08:37.767Z,100410.79
2023-02-28T09:10:42.510Z,100407.91
2023-02-28T09:12:47.297Z,100409.20
2023-02-28T09:14:53.427Z,100412.43
2023-02-28T09:16:58.973Z,100410.86
2023-02-28T09:19:03.727Z,100410.96
2023-02-28T09:21:13.000Z,100407.07
2023-02-28T09:23:17.863Z,100407.66
2023-02-28T09:25:22.552Z,100412.14
2023-02-28T09:27:27.459Z,100406.91
2023-02-28T09:29:32.394Z,100404.88
2023-02-28T09:31:37.200Z,100409.30
2023-02-28T09:33:42.024Z,100410.37
2023-02-28T09:35:46.840Z,100408.43
2023-02-28T09:37:52.373Z,100415.58
2023-02-28T09:39:57.622Z,100415.27
2023-02-28T09:42:05.174Z,100416.21
2023-02-28T09:44:14.066Z,100414.86
2023-02-28T09:46:30.586Z,100416.58
2023-02-28T09:48:41.234Z,100418.77
2023-02-28T09:50:50.668Z,100424.55
2023-02-28T09:52:57.561Z,100424.00
2023-02-28T09:55:19.474Z,100422.93
2023-02-28T09:57:33.544Z,100425.30
2023-02-28T09:59:52.673Z,100428.64
2023-02-28T10:02:08.122Z,100422.31
2023-02-28T10:04:18.547Z,100425.51
2023-02-28T10:06:27.221Z,100427.20
2023-02-28T10:08:37.504Z,100427.42
2023-02-28T10:10:45.525Z,100425.19
2023-02-28T10:12:53.864Z,100423.86
2023-02-28T10:15:01.282Z,100421.56
2023-02-28T10:17:12.044Z,100420.75
2023-02-28T10:19:23.196Z,100417.67
2023-02-28T10:21:33.267Z,100420.52
2023-02-28T10:23:38.835Z,100419.13
2023-02-28T10:25:47.124Z,100416.67
2023-02-28T10:27:54.085Z,100413.05
2023-02-28T10:30:00.772Z,100410.04
2023-02-28T10:32:06.674Z,100409.50
2023-02-28T10:34:14.482Z,100405.06
2023-02-28T10:36:21.057Z,100401.98
2023-02-28T10:38:28.120Z,100395.65
2023-02-28T10:40:37.098Z,100395.41
2023-02-28T10:42:41.880Z,100390.13
2023-02-28T10:44:46.607Z,100388.01
2023-02-28T10:46:53.843Z,100386.02
2023-02-28T10:49:06.101Z,100380.19
2023-02-28T10:51:13.346Z,100381.35
2023-02-28T10:53:32.958Z,100383.73
2023-02-28T10:55:40.159Z,100380.85
2023-02-28T10:57:44.862Z,100381.21
